sensor_id;sensor_type;location;lat;lon;timestamp;P1;durP1;ratioP1;P2;durP2;ratioP2
18336;SDS011;9294;51.106;7.028;2023-03-23T00:00:22;1.23;;;1.23;;
18336;SDS011;9294;51.106;7.028;2023-03-23T00:02:49;1.13;;;1.13;;
18336;SDS011;9294;51.106;7.028;2023-03-23T00:05:16;1.17;;;1.17;;
18336;SDS011;9294;51.106;7.028;2023-03-23T00:07:45;1.08;;;1.08;;
18336;SDS011;9294;51.106;7.028;2023-03-23T00:10:17;1.10;;;1.10;;
18336;SDS011;9294;51.106;7.028;2023-03-23T00:12:44;1.25;;;1.25;;
18336;SDS011;9294;51.106;7.028;2023-03-23T00:15:14;1.30;;;1.20;;
18336;SDS011;9294;51.106;7.028;2023-03-23T00:17:42;1.52;;;1.50;;
18336;SDS011;9294;51.106;7.028;2023-03-23T00:20:09;1.42;;;1.42;;
18336;SDS011;9294;51.106;7.028;2023-03-23T00:22:37;1.25;;;1.25;;
18336;SDS011;9294;51.106;7.028;2023-03-23T00:25:07;1.30;;;1.20;;
18336;SDS011;9294;51.106;7.028;2023-03-23T00:27:34;0.85;;;0.85;;
18336;SDS011;9294;51.106;7.028;2023-03-23T00:30:01;1.42;;;1.23;;
18336;SDS011;9294;51.106;7.028;2023-03-23T00:32:28;1.10;;;1.10;;
18336;SDS011;9294;51.106;7.028;2023-03-23T00:34:56;1.70;;;1.60;;
18336;SDS011;9294;51.106;7.028;2023-03-23T00:37:24;1.30;;;1.30;;
18336;SDS011;9294;51.106;7.028;2023-03-23T00:39:51;1.05;;;1.05;;
18336;SDS011;9294;51.106;7.028;2023-03-23T00:42:23;1.48;;;1.40;;
18336;SDS011;9294;51.106;7.028;2023-03-23T00:44:51;1.10;;;1.10;;
18336;SDS011;9294;51.106;7.028;2023-03-23T00:47:26;0.90;;;0.90;;
18336;SDS011;9294;51.106;7.028;2023-03-23T00:49:53;1.20;;;1.20;;
18336;SDS011;9294;51.106;7.028;2023-03-23T00:52:21;1.60;;;1.50;;
18336;SDS011;9294;51.106;7.028;2023-03-23T00:54:48;1.17;;;1.17;;
18336;SDS011;9294;51.106;7.028;2023-03-23T00:57:16;1.35;;;1.30;;
18336;SDS011;9294;51.106;7.028;2023-03-23T00:59:44;1.10;;;1.10;;
18336;SDS011;9294;51.106;7.028;2023-03-23T01:02:11;1.23;;;1.23;;
18336;SDS011;9294;51.106;7.028;2023-03-23T01:04:38;1.02;;;1.02;;
18336;SDS011;9294;51.106;7.028;2023-03-23T01:07:09;1.30;;;1.30;;
18336;SDS011;9294;51.106;7.028;2023-03-23T01:09:37;1.42;;;1.42;;
18336;SDS011;9294;51.106;7.028;2023-03-23T01:12:05;1.25;;;1.25;;
18336;SDS011;9294;51.106;7.028;2023-03-23T01:14:32;1.10;;;1.10;;
18336;SDS011;9294;51.106;7.028;2023-03-23T01:17:00;1.52;;;1.50;;
18336;SDS011;9294;51.106;7.028;2023-03-23T01:19:27;1.15;;;1.10;;
18336;SDS011;9294;51.106;7.028;2023-03-23T01:21:54;1.10;;;1.10;;
18336;SDS011;9294;51.106;7.028;2023-03-23T01:24:21;1.25;;;1.25;;
18336;SDS011;9294;51.106;7.028;2023-03-23T01:26:48;1.20;;;1.20;;
18336;SDS011;9294;51.106;7.028;2023-03-23T01:29:15;1.35;;;1.35;;
18336;SDS011;9294;51.106;7.028;2023-03-23T01:31:42;1.20;;;1.20;;
18336;SDS011;9294;51.106;7.028;2023-03-23T01:34:11;1.08;;;1.08;;
18336;SDS011;9294;51.106;7.028;2023-03-23T01:36:37;1.25;;;1.25;;
18336;SDS011;9294;51.106;7.028;2023-03-23T01:39:05;1.27;;;1.27;;
18336;SDS011;9294;51.106;7.028;2023-03-23T01:41:32;1.05;;;1.05;;
18336;SDS011;9294;51.106;7.028;2023-03-23T01:44:01;1.30;;;1.20;;
18336;SDS011;9294;51.106;7.028;2023-03-23T01:46:30;1.00;;;1.00;;
18336;SDS011;9294;51.106;7.028;2023-03-23T01:48:59;1.08;;;1.08;;
18336;SDS011;9294;51.106;7.028;2023-03-23T01:51:32;1.00;;;1.00;;
18336;SDS011;9294;51.106;7.028;2023-03-23T01:54:02;1.20;;;1.13;;
18336;SDS011;9294;51.106;7.028;2023-03-23T01:56:32;1.20;;;1.20;;
18336;SDS011;9294;51.106;7.028;2023-03-23T01:59:06;1.27;;;1.27;;
18336;SDS011;9294;51.106;7.028;2023-03-23T02:01:33;1.40;;;1.30;;
18336;SDS011;9294;51.106;7.028;2023-03-23T02:04:03;1.15;;;1.13;;
18336;SDS011;9294;51.106;7.028;2023-03-23T02:06:32;1.00;;;1.00;;
18336;SDS011;9294;51.106;7.028;2023-03-23T02:08:59;1.13;;;1.13;;
18336;SDS011;9294;51.106;7.028;2023-03-23T02:11:26;0.98;;;0.98;;
18336;SDS011;9294;51.106;7.028;2023-03-23T02:13:53;1.20;;;1.20;;
18336;SDS011;9294;51.106;7.028;2023-03-23T02:16:22;1.20;;;1.10;;
18336;SDS011;9294;51.106;7.028;2023-03-23T02:19:02;0.98;;;0.98;;
18336;SDS011;9294;51.106;7.028;2023-03-23T02:21:58;1.20;;;1.10;;
18336;SDS011;9294;51.106;7.028;2023-03-23T02:24:53;1.05;;;1.05;;
18336;SDS011;9294;51.106;7.028;2023-03-23T02:27:30;1.05;;;1.05;;
18336;SDS011;9294;51.106;7.028;2023-03-23T02:30:19;1.30;;;1.30;;
18336;SDS011;9294;51.106;7.028;2023-03-23T02:33:16;1.10;;;1.10;;
18336;SDS011;9294;51.106;7.028;2023-03-23T02:36:10;1.30;;;1.30;;
18336;SDS011;9294;51.106;7.028;2023-03-23T02:38:43;1.20;;;1.20;;
18336;SDS011;9294;51.106;7.028;2023-03-23T02:41:16;1.45;;;1.35;;
18336;SDS011;9294;51.106;7.028;2023-03-23T02:43:47;0.90;;;0.90;;
18336;SDS011;9294;51.106;7.028;2023-03-23T02:46:15;0.82;;;0.82;;
18336;SDS011;9294;51.106;7.028;2023-03-23T02:48:44;1.20;;;1.20;;
18336;SDS011;9294;51.106;7.028;2023-03-23T02:51:16;0.90;;;0.90;;
18336;SDS011;9294;51.106;7.028;2023-03-23T02:53:45;1.08;;;1.08;;
18336;SDS011;9294;51.106;7.028;2023-03-23T02:56:15;1.08;;;1.08;;
18336;SDS011;9294;51.106;7.028;2023-03-23T02:58:43;1.10;;;1.10;;
18336;SDS011;9294;51.106;7.028;2023-03-23T03:01:14;1.05;;;1.05;;
18336;SDS011;9294;51.106;7.028;2023-03-23T03:03:59;1.13;;;1.13;;
18336;SDS011;9294;51.106;7.028;2023-03-23T03:06:31;0.90;;;0.90;;
18336;SDS011;9294;51.106;7.028;2023-03-23T03:09:04;1.13;;;1.13;;
18336;SDS011;9294;51.106;7.028;2023-03-23T03:11:39;0.85;;;0.85;;
18336;SDS011;9294;51.106;7.028;2023-03-23T03:14:13;0.93;;;0.93;;
18336;SDS011;9294;51.106;7.028;2023-03-23T03:16:49;1.20;;;1.20;;
18336;SDS011;9294;51.106;7.028;2023-03-23T03:19:24;1.08;;;1.08;;
18336;SDS011;9294;51.106;7.028;2023-03-23T03:21:56;1.10;;;1.10;;
18336;SDS011;9294;51.106;7.028;2023-03-23T03:24:25;1.00;;;1.00;;
18336;SDS011;9294;51.106;7.028;2023-03-23T03:26:55;0.98;;;0.98;;
18336;SDS011;9294;51.106;7.028;2023-03-23T03:29:25;1.05;;;1.05;;
18336;SDS011;9294;51.106;7.028;2023-03-23T03:31:56;0.85;;;0.85;;
18336;SDS011;9294;51.106;7.028;2023-03-23T03:34:26;0.98;;;0.98;;
18336;SDS011;9294;51.106;7.028;2023-03-23T03:36:53;0.85;;;0.85;;
18336;SDS011;9294;51.106;7.028;2023-03-23T03:39:23;0.93;;;0.93;;
18336;SDS011;9294;51.106;7.028;2023-03-23T03:41:50;0.85;;;0.85;;
18336;SDS011;9294;51.106;7.028;2023-03-23T03:44:18;0.95;;;0.95;;
18336;SDS011;9294;51.106;7.028;2023-03-23T03:46:45;1.10;;;1.10;;
18336;SDS011;9294;51.106;7.028;2023-03-23T03:49:13;1.20;;;1.20;;
18336;SDS011;9294;51.106;7.028;2023-03-23T03:51:42;0.95;;;0.95;;
18336;SDS011;9294;51.106;7.028;2023-03-23T03:54:09;1.30;;;1.20;;
18336;SDS011;9294;51.106;7.028;2023-03-23T03:56:36;1.17;;;1.17;;
18336;SDS011;9294;51.106;7.028;2023-03-23T03:59:05;1.20;;;1.10;;
18336;SDS011;9294;51.106;7.028;2023-03-23T04:01:34;1.00;;;1.00;;
18336;SDS011;9294;51.106;7.028;2023-03-23T04:04:02;1.13;;;1.13;;
18336;SDS011;9294;51.106;7.028;2023-03-23T04:06:32;0.95;;;0.95;;
18336;SDS011;9294;51.106;7.028;2023-03-23T04:09:03;1.20;;;1.20;;
18336;SDS011;9294;51.106;7.028;2023-03-23T04:11:32;1.08;;;1.08;;
18336;SDS011;9294;51.106;7.028;2023-03-23T04:13:59;0.95;;;0.95;;
18336;SDS011;9294;51.106;7.028;2023-03-23T04:16:27;1.05;;;1.05;;
18336;SDS011;9294;51.106;7.028;2023-03-23T04:18:55;1.02;;;1.02;;
18336;SDS011;9294;51.106;7.028;2023-03-23T04:21:22;1.00;;;1.00;;
18336;SDS011;9294;51.106;7.028;2023-03-23T04:23:53;0.95;;;0.95;;
18336;SDS011;9294;51.106;7.028;2023-03-23T04:26:25;1.20;;;1.20;;
18336;SDS011;9294;51.106;7.028;2023-03-23T04:28:53;1.17;;;1.17;;
18336;SDS011;9294;51.106;7.028;2023-03-23T04:31:20;1.10;;;1.10;;
18336;SDS011;9294;51.106;7.028;2023-03-23T04:33:49;1.52;;;1.42;;
18336;SDS011;9294;51.106;7.028;2023-03-23T04:36:17;1.00;;;1.00;;
18336;SDS011;9294;51.106;7.028;2023-03-23T04:38:44;1.15;;;1.15;;
18336;SDS011;9294;51.106;7.028;2023-03-23T04:41:12;1.15;;;1.15;;
18336;SDS011;9294;51.106;7.028;2023-03-23T04:43:40;0.90;;;0.90;;
18336;SDS011;9294;51.106;7.028;2023-03-23T04:46:07;1.40;;;1.30;;
18336;SDS011;9294;51.106;7.028;2023-03-23T04:48:34;0.90;;;0.90;;
18336;SDS011;9294;51.106;7.028;2023-03-23T04:51:04;1.20;;;1.20;;
18336;SDS011;9294;51.106;7.028;2023-03-23T04:53:31;1.00;;;1.00;;
18336;SDS011;9294;51.106;7.028;2023-03-23T04:55:58;1.10;;;1.10;;
18336;SDS011;9294;51.106;7.028;2023-03-23T04:58:26;1.10;;;1.10;;
18336;SDS011;9294;51.106;7.028;2023-03-23T05:00:56;1.40;;;1.40;;
18336;SDS011;9294;51.106;7.028;2023-03-23T05:03:22;0.95;;;0.95;;
18336;SDS011;9294;51.106;7.028;2023-03-23T05:05:50;0.93;;;0.93;;
18336;SDS011;9294;51.106;7.028;2023-03-23T05:08:22;0.90;;;0.90;;
18336;SDS011;9294;51.106;7.028;2023-03-23T05:10:50;0.98;;;0.98;;
18336;SDS011;9294;51.106;7.028;2023-03-23T05:13:18;1.10;;;1.10;;
18336;SDS011;9294;51.106;7.028;2023-03-23T05:15:45;1.00;;;1.00;;
18336;SDS011;9294;51.106;7.028;2023-03-23T05:18:14;0.90;;;0.90;;
18336;SDS011;9294;51.106;7.028;2023-03-23T05:20:41;1.00;;;1.00;;
18336;SDS011;9294;51.106;7.028;2023-03-23T05:23:08;0.90;;;0.90;;
18336;SDS011;9294;51.106;7.028;2023-03-23T05:25:36;1.02;;;1.02;;
18336;SDS011;9294;51.106;7.028;2023-03-23T05:28:05;0.90;;;0.90;;
18336;SDS011;9294;51.106;7.028;2023-03-23T05:30:32;0.90;;;0.90;;
18336;SDS011;9294;51.106;7.028;2023-03-23T05:33:00;1.20;;;1.20;;
18336;SDS011;9294;51.106;7.028;2023-03-23T05:35:29;0.90;;;0.90;;
18336;SDS011;9294;51.106;7.028;2023-03-23T05:37:57;0.85;;;0.85;;
18336;SDS011;9294;51.106;7.028;2023-03-23T05:40:25;0.90;;;0.90;;
18336;SDS011;9294;51.106;7.028;2023-03-23T05:42:53;0.90;;;0.90;;
18336;SDS011;9294;51.106;7.028;2023-03-23T05:45:22;1.00;;;1.00;;
18336;SDS011;9294;51.106;7.028;2023-03-23T05:47:49;1.15;;;1.00;;
18336;SDS011;9294;51.106;7.028;2023-03-23T05:50:17;1.08;;;1.08;;
18336;SDS011;9294;51.106;7.028;2023-03-23T05:52:45;0.80;;;0.80;;
18336;SDS011;9294;51.106;7.028;2023-03-23T05:55:12;0.80;;;0.80;;
18336;SDS011;9294;51.106;7.028;2023-03-23T05:57:40;0.88;;;0.88;;
18336;SDS011;9294;51.106;7.028;2023-03-23T06:00:07;1.02;;;1.02;;
18336;SDS011;9294;51.106;7.028;2023-03-23T06:02:44;0.80;;;0.80;;
18336;SDS011;9294;51.106;7.028;2023-03-23T06:05:11;0.90;;;0.90;;
18336;SDS011;9294;51.106;7.028;2023-03-23T06:07:40;0.90;;;0.90;;
18336;SDS011;9294;51.106;7.028;2023-03-23T06:10:09;0.77;;;0.77;;
18336;SDS011;9294;51.106;7.028;2023-03-23T06:12:36;1.00;;;1.00;;
18336;SDS011;9294;51.106;7.028;2023-03-23T06:15:04;1.00;;;1.00;;
18336;SDS011;9294;51.106;7.028;2023-03-23T06:17:31;1.00;;;1.00;;
18336;SDS011;9294;51.106;7.028;2023-03-23T06:19:58;1.00;;;1.00;;
18336;SDS011;9294;51.106;7.028;2023-03-23T06:22:25;0.85;;;0.85;;
18336;SDS011;9294;51.106;7.028;2023-03-23T06:24:53;1.00;;;1.00;;
18336;SDS011;9294;51.106;7.028;2023-03-23T06:27:23;1.15;;;0.95;;
18336;SDS011;9294;51.106;7.028;2023-03-23T06:29:50;0.85;;;0.85;;
18336;SDS011;9294;51.106;7.028;2023-03-23T06:32:17;0.98;;;0.98;;
18336;SDS011;9294;51.106;7.028;2023-03-23T06:34:45;1.23;;;1.13;;
18336;SDS011;9294;51.106;7.028;2023-03-23T06:37:12;1.20;;;1.10;;
18336;SDS011;9294;51.106;7.028;2023-03-23T06:39:40;1.10;;;1.10;;
18336;SDS011;9294;51.106;7.028;2023-03-23T06:42:08;1.00;;;1.00;;
18336;SDS011;9294;51.106;7.028;2023-03-23T06:44:38;1.10;;;1.10;;
18336;SDS011;9294;51.106;7.028;2023-03-23T06:47:05;1.40;;;0.80;;
18336;SDS011;9294;51.106;7.028;2023-03-23T06:49:32;0.90;;;0.90;;
18336;SDS011;9294;51.106;7.028;2023-03-23T06:51:59;0.70;;;0.70;;
18336;SDS011;9294;51.106;7.028;2023-03-23T06:54:28;1.58;;;0.90;;
18336;SDS011;9294;51.106;7.028;2023-03-23T06:56:55;1.10;;;1.02;;
18336;SDS011;9294;51.106;7.028;2023-03-23T06:59:22;0.75;;;0.75;;
18336;SDS011;9294;51.106;7.028;2023-03-23T07:01:51;1.13;;;1.13;;
18336;SDS011;9294;51.106;7.028;2023-03-23T07:04:18;0.90;;;0.90;;
18336;SDS011;9294;51.106;7.028;2023-03-23T07:06:46;1.23;;;0.90;;
18336;SDS011;9294;51.106;7.028;2023-03-23T07:09:13;2.25;;;1.63;;
18336;SDS011;9294;51.106;7.028;2023-03-23T07:11:40;1.13;;;1.10;;
18336;SDS011;9294;51.106;7.028;2023-03-23T07:14:09;1.73;;;1.27;;
18336;SDS011;9294;51.106;7.028;2023-03-23T07:16:36;1.02;;;1.00;;
18336;SDS011;9294;51.106;7.028;2023-03-23T07:19:05;1.08;;;1.00;;
18336;SDS011;9294;51.106;7.028;2023-03-23T07:21:31;1.40;;;1.25;;
18336;SDS011;9294;51.106;7.028;2023-03-23T07:23:58;2.15;;;1.33;;
18336;SDS011;9294;51.106;7.028;2023-03-23T07:26:25;1.00;;;1.00;;
18336;SDS011;9294;51.106;7.028;2023-03-23T07:28:53;1.95;;;0.80;;
18336;SDS011;9294;51.106;7.028;2023-03-23T07:31:19;1.73;;;1.38;;
18336;SDS011;9294;51.106;7.028;2023-03-23T07:33:47;1.08;;;1.00;;
18336;SDS011;9294;51.106;7.028;2023-03-23T07:36:15;3.78;;;1.10;;
18336;SDS011;9294;51.106;7.028;2023-03-23T07:38:41;1.27;;;1.17;;
18336;SDS011;9294;51.106;7.028;2023-03-23T07:41:08;1.20;;;1.10;;
18336;SDS011;9294;51.106;7.028;2023-03-23T07:43:36;2.25;;;1.20;;
18336;SDS011;9294;51.106;7.028;2023-03-23T07:46:03;1.38;;;1.27;;
18336;SDS011;9294;51.106;7.028;2023-03-23T07:48:30;3.67;;;1.23;;
18336;SDS011;9294;51.106;7.028;2023-03-23T07:50:57;2.95;;;1.45;;
18336;SDS011;9294;51.106;7.028;2023-03-23T07:53:26;1.25;;;1.20;;
18336;SDS011;9294;51.106;7.028;2023-03-23T07:55:53;3.13;;;1.00;;
18336;SDS011;9294;51.106;7.028;2023-03-23T07:58:20;1.63;;;1.20;;
18336;SDS011;9294;51.106;7.028;2023-03-23T08:00:47;2.05;;;1.13;;
18336;SDS011;9294;51.106;7.028;2023-03-23T08:03:15;0.82;;;0.82;;
18336;SDS011;9294;51.106;7.028;2023-03-23T08:05:43;2.25;;;1.50;;
18336;SDS011;9294;51.106;7.028;2023-03-23T08:08:10;1.40;;;1.30;;
18336;SDS011;9294;51.106;7.028;2023-03-23T08:10:39;1.27;;;1.15;;
18336;SDS011;9294;51.106;7.028;2023-03-23T08:13:06;2.17;;;1.23;;
18336;SDS011;9294;51.106;7.028;2023-03-23T08:15:33;2.42;;;1.20;;
18336;SDS011;9294;51.106;7.028;2023-03-23T08:18:02;2.50;;;1.10;;
18336;SDS011;9294;51.106;7.028;2023-03-23T08:20:29;2.60;;;1.33;;
18336;SDS011;9294;51.106;7.028;2023-03-23T08:22:57;1.10;;;1.00;;
18336;SDS011;9294;51.106;7.028;2023-03-23T08:25:25;1.13;;;1.10;;
18336;SDS011;9294;51.106;7.028;2023-03-23T08:27:54;1.60;;;0.93;;
18336;SDS011;9294;51.106;7.028;2023-03-23T08:30:21;1.20;;;1.02;;
18336;SDS011;9294;51.106;7.028;2023-03-23T08:32:49;2.03;;;1.33;;
18336;SDS011;9294;51.106;7.028;2023-03-23T08:35:17;2.10;;;1.30;;
18336;SDS011;9294;51.106;7.028;2023-03-23T08:37:44;1.23;;;1.13;;
18336;SDS011;9294;51.106;7.028;2023-03-23T08:40:15;1.42;;;1.27;;
18336;SDS011;9294;51.106;7.028;2023-03-23T08:42:44;1.20;;;1.10;;
18336;SDS011;9294;51.106;7.028;2023-03-23T08:45:15;1.70;;;1.60;;
18336;SDS011;9294;51.106;7.028;2023-03-23T08:47:44;2.08;;;1.10;;
18336;SDS011;9294;51.106;7.028;2023-03-23T08:50:15;1.65;;;1.10;;
18336;SDS011;9294;51.106;7.028;2023-03-23T08:52:42;1.17;;;1.17;;
18336;SDS011;9294;51.106;7.028;2023-03-23T08:55:10;1.52;;;1.17;;
18336;SDS011;9294;51.106;7.028;2023-03-23T08:57:37;1.20;;;1.10;;
18336;SDS011;9294;51.106;7.028;2023-03-23T09:00:06;1.30;;;1.20;;
18336;SDS011;9294;51.106;7.028;2023-03-23T09:02:45;1.77;;;1.13;;
18336;SDS011;9294;51.106;7.028;2023-03-23T09:05:13;1.30;;;1.17;;
18336;SDS011;9294;51.106;7.028;2023-03-23T09:07:43;1.88;;;1.27;;
18336;SDS011;9294;51.106;7.028;2023-03-23T09:10:12;1.15;;;1.10;;
18336;SDS011;9294;51.106;7.028;2023-03-23T09:12:39;1.45;;;1.20;;
18336;SDS011;9294;51.106;7.028;2023-03-23T09:15:11;1.10;;;1.10;;
18336;SDS011;9294;51.106;7.028;2023-03-23T09:17:40;1.50;;;1.40;;
18336;SDS011;9294;51.106;7.028;2023-03-23T09:20:12;1.38;;;1.27;;
18336;SDS011;9294;51.106;7.028;2023-03-23T09:22:43;1.33;;;1.20;;
18336;SDS011;9294;51.106;7.028;2023-03-23T09:25:12;6.43;;;1.20;;
18336;SDS011;9294;51.106;7.028;2023-03-23T09:27:41;0.98;;;0.98;;
18336;SDS011;9294;51.106;7.028;2023-03-23T09:30:10;0.98;;;0.98;;
18336;SDS011;9294;51.106;7.028;2023-03-23T09:32:39;1.00;;;1.00;;
18336;SDS011;9294;51.106;7.028;2023-03-23T09:35:09;1.50;;;1.40;;
18336;SDS011;9294;51.106;7.028;2023-03-23T09:37:37;1.38;;;1.17;;
18336;SDS011;9294;51.106;7.028;2023-03-23T09:40:05;3.33;;;1.08;;
18336;SDS011;9294;51.106;7.028;2023-03-23T09:42:39;0.93;;;0.93;;
18336;SDS011;9294;51.106;7.028;2023-03-23T09:45:15;2.05;;;1.27;;
18336;SDS011;9294;51.106;7.028;2023-03-23T09:47:49;1.83;;;1.05;;
18336;SDS011;9294;51.106;7.028;2023-03-23T09:50:28;1.60;;;1.20;;
18336;SDS011;9294;51.106;7.028;2023-03-23T09:53:00;2.17;;;1.10;;
18336;SDS011;9294;51.106;7.028;2023-03-23T09:55:31;2.00;;;1.00;;
18336;SDS011;9294;51.106;7.028;2023-03-23T09:57:59;1.08;;;1.08;;
18336;SDS011;9294;51.106;7.028;2023-03-23T10:00:38;2.97;;;1.10;;
18336;SDS011;9294;51.106;7.028;2023-03-23T10:03:10;2.65;;;1.27;;
18336;SDS011;9294;51.106;7.028;2023-03-23T10:05:42;2.88;;;1.17;;
18336;SDS011;9294;51.106;7.028;2023-03-23T10:08:14;4.53;;;1.80;;
18336;SDS011;9294;51.106;7.028;2023-03-23T10:10:47;2.35;;;0.95;;
18336;SDS011;9294;51.106;7.028;2023-03-23T10:13:24;1.27;;;1.10;;
18336;SDS011;9294;51.106;7.028;2023-03-23T10:16:02;2.15;;;1.10;;
18336;SDS011;9294;51.106;7.028;2023-03-23T10:18:35;1.42;;;1.33;;
18336;SDS011;9294;51.106;7.028;2023-03-23T10:21:06;2.03;;;1.20;;
18336;SDS011;9294;51.106;7.028;2023-03-23T10:23:44;4.00;;;1.50;;
18336;SDS011;9294;51.106;7.028;2023-03-23T10:26:21;4.38;;;1.20;;
18336;SDS011;9294;51.106;7.028;2023-03-23T10:28:58;2.45;;;1.13;;
18336;SDS011;9294;51.106;7.028;2023-03-23T10:31:35;2.70;;;1.27;;
18336;SDS011;9294;51.106;7.028;2023-03-23T10:34:08;10.40;;;1.80;;
18336;SDS011;9294;51.106;7.028;2023-03-23T10:36:52;6.57;;;2.15;;
18336;SDS011;9294;51.106;7.028;2023-03-23T10:39:26;3.38;;;2.05;;
18336;SDS011;9294;51.106;7.028;2023-03-23T10:41:59;4.20;;;2.63;;
18336;SDS011;9294;51.106;7.028;2023-03-23T10:44:32;4.55;;;3.28;;
18336;SDS011;9294;51.106;7.028;2023-03-23T10:47:00;9.80;;;4.90;;
18336;SDS011;9294;51.106;7.028;2023-03-23T10:49:30;8.57;;;5.05;;
18336;SDS011;9294;51.106;7.028;2023-03-23T10:52:04;8.98;;;5.43;;
18336;SDS011;9294;51.106;7.028;2023-03-23T10:54:37;11.13;;;5.15;;
18336;SDS011;9294;51.106;7.028;2023-03-23T10:57:12;7.32;;;4.95;;
18336;SDS011;9294;51.106;7.028;2023-03-23T10:59:47;9.20;;;6.68;;
18336;SDS011;9294;51.106;7.028;2023-03-23T11:02:16;10.15;;;6.78;;
18336;SDS011;9294;51.106;7.028;2023-03-23T11:04:45;11.13;;;6.55;;
18336;SDS011;9294;51.106;7.028;2023-03-23T11:10:11;8.75;;;5.95;;
18336;SDS011;9294;51.106;7.028;2023-03-23T11:12:44;7.43;;;5.97;;
18336;SDS011;9294;51.106;7.028;2023-03-23T11:15:21;8.93;;;6.65;;
18336;SDS011;9294;51.106;7.028;2023-03-23T11:17:57;7.93;;;5.32;;
18336;SDS011;9294;51.106;7.028;2023-03-23T11:20:26;7.63;;;5.43;;
18336;SDS011;9294;51.106;7.028;2023-03-23T11:22:57;8.40;;;5.50;;
18336;SDS011;9294;51.106;7.028;2023-03-23T11:25:24;7.78;;;5.47;;
18336;SDS011;9294;51.106;7.028;2023-03-23T11:27:51;6.57;;;5.25;;
18336;SDS011;9294;51.106;7.028;2023-03-23T11:30:20;6.57;;;4.82;;
18336;SDS011;9294;51.106;7.028;2023-03-23T11:32:50;8.68;;;4.85;;
18336;SDS011;9294;51.106;7.028;2023-03-23T11:35:19;9.02;;;4.85;;
18336;SDS011;9294;51.106;7.028;2023-03-23T11:37:48;8.82;;;5.03;;
18336;SDS011;9294;51.106;7.028;2023-03-23T11:40:20;6.53;;;4.25;;
18336;SDS011;9294;51.106;7.028;2023-03-23T11:42:49;4.55;;;4.10;;
18336;SDS011;9294;51.106;7.028;2023-03-23T11:45:24;6.97;;;4.78;;
18336;SDS011;9294;51.106;7.028;2023-03-23T11:47:59;6.00;;;4.10;;
18336;SDS011;9294;51.106;7.028;2023-03-23T11:50:32;5.28;;;3.70;;
18336;SDS011;9294;51.106;7.028;2023-03-23T11:53:02;5.90;;;4.22;;
18336;SDS011;9294;51.106;7.028;2023-03-23T11:55:50;7.50;;;3.72;;
18336;SDS011;9294;51.106;7.028;2023-03-23T11:58:21;4.68;;;3.92;;
18336;SDS011;9294;51.106;7.028;2023-03-23T12:00:51;4.00;;;3.20;;
18336;SDS011;9294;51.106;7.028;2023-03-23T12:03:22;3.78;;;3.40;;
18336;SDS011;9294;51.106;7.028;2023-03-23T12:06:04;5.05;;;3.00;;
18336;SDS011;9294;51.106;7.028;2023-03-23T12:08:40;4.57;;;3.40;;
18336;SDS011;9294;51.106;7.028;2023-03-23T12:11:20;3.42;;;3.15;;
18336;SDS011;9294;51.106;7.028;2023-03-23T12:14:00;3.60;;;3.30;;
18336;SDS011;9294;51.106;7.028;2023-03-23T12:16:41;3.42;;;3.13;;
18336;SDS011;9294;51.106;7.028;2023-03-23T12:19:17;5.95;;;3.72;;
18336;SDS011;9294;51.106;7.028;2023-03-23T12:21:54;3.08;;;2.83;;
18336;SDS011;9294;51.106;7.028;2023-03-23T12:24:30;3.47;;;2.90;;
18336;SDS011;9294;51.106;7.028;2023-03-23T12:27:10;3.85;;;2.50;;
18336;SDS011;9294;51.106;7.028;2023-03-23T12:29:47;3.38;;;3.10;;
18336;SDS011;9294;51.106;7.028;2023-03-23T12:32:31;5.57;;;3.17;;
18336;SDS011;9294;51.106;7.028;2023-03-23T12:35:20;4.72;;;3.13;;
18336;SDS011;9294;51.106;7.028;2023-03-23T12:37:57;3.05;;;2.75;;
18336;SDS011;9294;51.106;7.028;2023-03-23T12:43:28;4.28;;;2.40;;
18336;SDS011;9294;51.106;7.028;2023-03-23T12:46:16;4.53;;;2.60;;
18336;SDS011;9294;51.106;7.028;2023-03-23T12:48:49;4.22;;;2.30;;
18336;SDS011;9294;51.106;7.028;2023-03-23T12:51:19;3.90;;;2.55;;
18336;SDS011;9294;51.106;7.028;2023-03-23T12:53:53;6.70;;;2.50;;
18336;SDS011;9294;51.106;7.028;2023-03-23T12:56:25;3.95;;;3.00;;
18336;SDS011;9294;51.106;7.028;2023-03-23T12:58:58;3.10;;;2.38;;
18336;SDS011;9294;51.106;7.028;2023-03-23T13:01:30;2.33;;;2.13;;
18336;SDS011;9294;51.106;7.028;2023-03-23T13:04:01;4.30;;;2.47;;
18336;SDS011;9294;51.106;7.028;2023-03-23T13:06:32;2.83;;;1.77;;
18336;SDS011;9294;51.106;7.028;2023-03-23T13:09:03;2.22;;;2.10;;
18336;SDS011;9294;51.106;7.028;2023-03-23T13:11:34;2.17;;;2.08;;
18336;SDS011;9294;51.106;7.028;2023-03-23T13:14:06;2.40;;;2.30;;
18336;SDS011;9294;51.106;7.028;2023-03-23T13:16:43;2.25;;;2.15;;
18336;SDS011;9294;51.106;7.028;2023-03-23T13:19:19;2.00;;;1.90;;
18336;SDS011;9294;51.106;7.028;2023-03-23T13:21:52;2.42;;;2.25;;
18336;SDS011;9294;51.106;7.028;2023-03-23T13:24:25;2.22;;;2.00;;
18336;SDS011;9294;51.106;7.028;2023-03-23T13:26:55;1.92;;;1.83;;
18336;SDS011;9294;51.106;7.028;2023-03-23T13:29:27;3.00;;;2.00;;
18336;SDS011;9294;51.106;7.028;2023-03-23T13:32:04;2.00;;;1.90;;
18336;SDS011;9294;51.106;7.028;2023-03-23T13:34:34;2.38;;;2.25;;
18336;SDS011;9294;51.106;7.028;2023-03-23T13:37:02;1.90;;;1.80;;
18336;SDS011;9294;51.106;7.028;2023-03-23T13:39:31;1.73;;;1.63;;
18336;SDS011;9294;51.106;7.028;2023-03-23T13:42:01;1.80;;;1.70;;
18336;SDS011;9294;51.106;7.028;2023-03-23T13:44:42;1.70;;;1.60;;
18336;SDS011;9294;51.106;7.028;2023-03-23T13:47:24;1.80;;;1.70;;
18336;SDS011;9294;51.106;7.028;2023-03-23T13:49:54;1.92;;;1.80;;
18336;SDS011;9294;51.106;7.028;2023-03-23T13:52:23;1.52;;;1.42;;
18336;SDS011;9294;51.106;7.028;2023-03-23T13:54:52;2.38;;;1.73;;
18336;SDS011;9294;51.106;7.028;2023-03-23T13:57:49;1.70;;;1.70;;
18336;SDS011;9294;51.106;7.028;2023-03-23T14:00:36;2.00;;;1.70;;
18336;SDS011;9294;51.106;7.028;2023-03-23T14:03:13;2.83;;;1.58;;
18336;SDS011;9294;51.106;7.028;2023-03-23T14:05:43;1.60;;;1.50;;
18336;SDS011;9294;51.106;7.028;2023-03-23T14:08:12;2.85;;;2.00;;
18336;SDS011;9294;51.106;7.028;2023-03-23T14:10:49;1.95;;;1.85;;
18336;SDS011;9294;51.106;7.028;2023-03-23T14:13:19;3.63;;;1.70;;
18336;SDS011;9294;51.106;7.028;2023-03-23T14:15:58;1.92;;;1.48;;
18336;SDS011;9294;51.106;7.028;2023-03-23T14:18:28;2.20;;;2.03;;
18336;SDS011;9294;51.106;7.028;2023-03-23T14:20:57;3.92;;;1.67;;
18336;SDS011;9294;51.106;7.028;2023-03-23T14:23:25;1.50;;;1.50;;
18336;SDS011;9294;51.106;7.028;2023-03-23T14:25:56;1.45;;;1.38;;
18336;SDS011;9294;51.106;7.028;2023-03-23T14:28:30;1.35;;;1.35;;
18336;SDS011;9294;51.106;7.028;2023-03-23T14:30:59;1.73;;;1.60;;
18336;SDS011;9294;51.106;7.028;2023-03-23T14:33:26;1.85;;;1.20;;
18336;SDS011;9294;51.106;7.028;2023-03-23T14:35:53;1.60;;;1.50;;
18336;SDS011;9294;51.106;7.028;2023-03-23T14:38:24;1.40;;;1.30;;
18336;SDS011;9294;51.106;7.028;2023-03-23T14:40:59;1.63;;;1.52;;
18336;SDS011;9294;51.106;7.028;2023-03-23T14:43:27;1.73;;;1.33;;
18336;SDS011;9294;51.106;7.028;2023-03-23T14:45:55;2.03;;;1.60;;
18336;SDS011;9294;51.106;7.028;2023-03-23T14:48:25;1.65;;;1.52;;
18336;SDS011;9294;51.106;7.028;2023-03-23T14:50:55;1.38;;;1.38;;
18336;SDS011;9294;51.106;7.028;2023-03-23T14:53:24;1.58;;;1.45;;
18336;SDS011;9294;51.106;7.028;2023-03-23T14:55:53;2.35;;;1.75;;
18336;SDS011;9294;51.106;7.028;2023-03-23T14:58:22;1.55;;;1.42;;
18336;SDS011;9294;51.106;7.028;2023-03-23T15:00:52;1.38;;;1.30;;
18336;SDS011;9294;51.106;7.028;2023-03-23T15:03:22;2.80;;;1.60;;
18336;SDS011;9294;51.106;7.028;2023-03-23T15:05:53;1.48;;;1.45;;
18336;SDS011;9294;51.106;7.028;2023-03-23T15:08:24;2.45;;;1.40;;
18336;SDS011;9294;51.106;7.028;2023-03-23T15:11:03;2.10;;;1.45;;
18336;SDS011;9294;51.106;7.028;2023-03-23T15:13:32;1.88;;;1.27;;
18336;SDS011;9294;51.106;7.028;2023-03-23T15:16:04;2.70;;;1.77;;
18336;SDS011;9294;51.106;7.028;2023-03-23T15:18:34;3.55;;;1.45;;
18336;SDS011;9294;51.106;7.028;2023-03-23T15:21:11;1.42;;;1.33;;
18336;SDS011;9294;51.106;7.028;2023-03-23T15:23:46;2.25;;;1.40;;
18336;SDS011;9294;51.106;7.028;2023-03-23T15:26:24;1.27;;;1.20;;